Avalon — PBSF — position and weather

sailwx.info

Track history (hours):
 
Tides and Currents Weather Stations Pressure Air Temp Water Temp Dewpoint Dewpoint Depression Visibility Wind Speed Wind Dir Waves Ship Positions

Avalon

Last reported at 2014-Oct-30 15:24 UTC. Time now 2014-Oct-30 16:08 UTC.
Position N 55°06' W 007°13'.

Length 89 m; draft 5.1 m.

Type: Cargo ship. MMSI: 246578000.

Date/timePositionNaut miles runAvg speedWind from/ knotsBaromVisibWave heightAir tempDewpointWater temp
2014-Oct-30 15:24N 55°06' W 007°13'15 8.3
2014-Oct-30 13:33N 55°15' W 006°51'8 8.4
2014-Oct-30 12:33N 55°16' W 006°37'8 8.4
2014-Oct-30 11:33N 55°16' W 006°22'8 7.6
2014-Oct-30 10:33N 55°14' W 006°09'6 6.5
2014-Oct-30 09:33N 55°11' W 005°60'1110.3
2014-Oct-30 08:32N 55°02' W 005°48'1211.2
2014-Oct-30 07:30N 54°53' W 005°35'1111.4
2014-Oct-30 06:33N 54°45' W 005°24'1211.5
2014-Oct-30 05:33N 54°34' W 005°18'1110.8
2014-Oct-30 04:33N 54°23' W 005°14'1010.1
2014-Oct-30 03:33N 54°13' W 005°15'257 7.5
2014-Oct-28 17:10N 50°02' W 003°48'610.4
2014-Oct-28 16:33N 50°03' W 003°38'1111.0
2014-Oct-28 15:33N 50°04' W 003°21'1111.0
2014-Oct-28 14:31N 50°06' W 003°04'1010.4
2014-Oct-28 13:33N 50°08' W 002°48'9 9.3
2014-Oct-28 12:33N 50°09' W 002°34'8 8.0
2014-Oct-28 11:33N 50°09' W 002°22'8 7.0
2014-Oct-28 10:23N 50°07' W 002°09'4 5.3
2014-Oct-28 09:32N 50°06' W 002°02'7 6.8
2014-Oct-28 08:33N 50°03' W 001°53'8 8.5
2014-Oct-28 07:33N 49°59' W 001°41'1110.6
2014-Oct-28 06:33N 49°55' W 001°26'3812.4
2014-Oct-28 03:30N 49°38' W 000°33'1111.7
2014-Oct-28 02:33N 49°33' W 000°18'1110.6
2014-Oct-28 01:33N 49°29' W 000°03'10 9.6
2014-Oct-28 00:33N 49°26' E 000°11'9 9.3
2014-Oct-27 23:33N 49°27' E 000°25'6 5.9
2014-Oct-27 22:33N 49°27' E 000°34'9 6.7
2014-Oct-27 21:17N 49°31' E 000°45'  
2014-Oct-22 09:32N 49°28' E 000°40'8 7.8
2014-Oct-22 08:34N 49°29' E 000°28'1110.6
2014-Oct-22 07:33N 49°26' E 000°13'9 9.5
2014-Oct-22 06:34N 49°28' W 000°02'8 8.0
2014-Oct-22 05:33N 49°33' W 000°11'9 8.4
2014-Oct-22 04:30N 49°42' W 000°09'85 5.9
2014-Oct-21 14:05N 50°50' E 001°12'4 5.7
2014-Oct-21 13:22N 50°53' E 001°17'4 4.9
2014-Oct-21 12:34N 50°56' E 001°21'4 3.7
2014-Oct-21 11:33N 50°59' E 001°24'3 2.9
2014-Oct-21 10:33N 51°01' E 001°27'2 2.3
2014-Oct-21 09:34N 51°03' E 001°30'2 2.4
2014-Oct-21 08:34N 51°05' E 001°33'3 3.3
2014-Oct-21 07:34N 51°07' E 001°37'5 5.2
2014-Oct-21 06:34N 51°10' E 001°42'7 6.8
2014-Oct-21 05:34N 51°16' E 001°50'8 7.8
2014-Oct-21 04:34N 51°22' E 001°56'6 6.0
2014-Oct-21 03:33N 51°23' E 002°06'8 7.6
2014-Oct-21 02:34N 51°20' E 002°17'7 7.0
2014-Oct-21 01:33N 51°22' E 002°28'7 6.6
2014-Oct-21 00:33N 51°23' E 002°39'6 5.9
2014-Oct-20 23:33N 51°22' E 002°48'7 7.1
2014-Oct-20 22:32N 51°24' E 002°59'7 6.4
2014-Oct-20 21:30N 51°24' E 003°10'7 6.9
2014-Oct-20 20:32N 51°24' E 003°21'8 8.0
2014-Oct-20 19:33N 51°26' E 003°33'6 6.4
2014-Oct-20 18:33N 51°27' E 003°43'0 0.0
2014-Oct-20 17:31N 51°27' E 003°43'0 0.0
2014-Oct-20 16:31N 51°27' E 003°43'0 0.0
2014-Oct-20 15:31N 51°27' E 003°43'  
Track history (hours):
 
Tides and Currents Weather Stations Pressure Air Temp Water Temp Dewpoint Dewpoint Depression Visibility Wind Speed Wind Dir Waves Ship Positions

Avalon

Last reported at 2014-Oct-30 15:24 UTC. Time now 2014-Oct-30 16:08 UTC.
Position N 55°06' W 007°13'.

Length 89 m; draft 5.1 m.

Type: Cargo ship. MMSI: 246578000.

Date/timePositionNaut miles runAvg speedWind from/ knotsBaromVisibWave heightAir tempDewpointWater temp
2014-Oct-30 15:24N 55°06' W 007°13'15 8.3
2014-Oct-30 13:33N 55°15' W 006°51'8 8.4
2014-Oct-30 12:33N 55°16' W 006°37'8 8.4
2014-Oct-30 11:33N 55°16' W 006°22'8 7.6
2014-Oct-30 10:33N 55°14' W 006°09'6 6.5
2014-Oct-30 09:33N 55°11' W 005°60'1110.3
2014-Oct-30 08:32N 55°02' W 005°48'1211.2
2014-Oct-30 07:30N 54°53' W 005°35'1111.4
2014-Oct-30 06:33N 54°45' W 005°24'1211.5
2014-Oct-30 05:33N 54°34' W 005°18'1110.8
2014-Oct-30 04:33N 54°23' W 005°14'1010.1
2014-Oct-30 03:33N 54°13' W 005°15'257 7.5
2014-Oct-28 17:10N 50°02' W 003°48'610.4
2014-Oct-28 16:33N 50°03' W 003°38'1111.0
2014-Oct-28 15:33N 50°04' W 003°21'1111.0
2014-Oct-28 14:31N 50°06' W 003°04'1010.4
2014-Oct-28 13:33N 50°08' W 002°48'9 9.3
2014-Oct-28 12:33N 50°09' W 002°34'8 8.0
2014-Oct-28 11:33N 50°09' W 002°22'8 7.0
2014-Oct-28 10:23N 50°07' W 002°09'4 5.3
2014-Oct-28 09:32N 50°06' W 002°02'7 6.8
2014-Oct-28 08:33N 50°03' W 001°53'8 8.5
2014-Oct-28 07:33N 49°59' W 001°41'1110.6
2014-Oct-28 06:33N 49°55' W 001°26'3812.4
2014-Oct-28 03:30N 49°38' W 000°33'1111.7
2014-Oct-28 02:33N 49°33' W 000°18'1110.6
2014-Oct-28 01:33N 49°29' W 000°03'10 9.6
2014-Oct-28 00:33N 49°26' E 000°11'9 9.3
2014-Oct-27 23:33N 49°27' E 000°25'6 5.9
2014-Oct-27 22:33N 49°27' E 000°34'9 6.7
2014-Oct-27 21:17N 49°31' E 000°45'  
2014-Oct-22 09:32N 49°28' E 000°40'8 7.8
2014-Oct-22 08:34N 49°29' E 000°28'1110.6
2014-Oct-22 07:33N 49°26' E 000°13'9 9.5
2014-Oct-22 06:34N 49°28' W 000°02'8 8.0
2014-Oct-22 05:33N 49°33' W 000°11'9 8.4
2014-Oct-22 04:30N 49°42' W 000°09'85 5.9
2014-Oct-21 14:05N 50°50' E 001°12'4 5.7
2014-Oct-21 13:22N 50°53' E 001°17'4 4.9
2014-Oct-21 12:34N 50°56' E 001°21'4 3.7
2014-Oct-21 11:33N 50°59' E 001°24'3 2.9
2014-Oct-21 10:33N 51°01' E 001°27'2 2.3
2014-Oct-21 09:34N 51°03' E 001°30'2 2.4
2014-Oct-21 08:34N 51°05' E 001°33'3 3.3
2014-Oct-21 07:34N 51°07' E 001°37'5 5.2
2014-Oct-21 06:34N 51°10' E 001°42'7 6.8
2014-Oct-21 05:34N 51°16' E 001°50'8 7.8
2014-Oct-21 04:34N 51°22' E 001°56'6 6.0
2014-Oct-21 03:33N 51°23' E 002°06'8 7.6
2014-Oct-21 02:34N 51°20' E 002°17'7 7.0
2014-Oct-21 01:33N 51°22' E 002°28'7 6.6
2014-Oct-21 00:33N 51°23' E 002°39'6 5.9
2014-Oct-20 23:33N 51°22' E 002°48'7 7.1
2014-Oct-20 22:32N 51°24' E 002°59'7 6.4
2014-Oct-20 21:30N 51°24' E 003°10'7 6.9
2014-Oct-20 20:32N 51°24' E 003°21'8 8.0
2014-Oct-20 19:33N 51°26' E 003°33'6 6.4
2014-Oct-20 18:33N 51°27' E 003°43'0 0.0
2014-Oct-20 17:31N 51°27' E 003°43'0 0.0
2014-Oct-20 16:31N 51°27' E 003°43'0 0.0
2014-Oct-20 15:31N 51°27' E 003°43'  

Dump ship's entire track history